Buoy 62726

sailwx.info

Track history (hours):
 
Tides and Currents Weather Stations Pressure Air Temp Water Temp Dewpoint Dewpoint Depression Visibility Wind Speed Wind Dir Waves Ship Positions

Drifting buoy 62726

Last reported at 2014-Nov-22 23:00 UTC. Time now 2014-Nov-23 03:44 UTC.
Position N 42°09' W 014°29'.

Water temperature 16.8 ° C

Date/timePositionNaut miles runAvg speedWind from/ knotsBaromVisibWave heightAir tempDewpointWater temp
2014-Nov-22 23:00N 42°09' W 014°29'0 0.3 16.8
2014-Nov-22 22:00N 42°09' W 014°29'0 0.0 16.8
2014-Nov-22 21:00N 42°09' W 014°29'0 0.0 16.8
2014-Nov-22 20:00N 42°09' W 014°29'0 0.0 16.8
2014-Nov-22 17:00N 42°09' W 014°29'2 1.9 16.8
2014-Nov-22 16:00N 42°07' W 014°29'0 0.0 16.8
2014-Nov-22 14:00N 42°07' W 014°29'2 0.6 16.9
2014-Nov-22 11:00N 42°07' W 014°26'0 0.0 16.9
2014-Nov-22 10:00N 42°07' W 014°26'1 0.7 16.9
2014-Nov-22 09:00N 42°08' W 014°26'0 0.0 16.9
2014-Nov-22 07:00N 42°08' W 014°26'1 1.2 16.9
2014-Nov-22 06:00N 42°07' W 014°26'0 0.0 16.9
2014-Nov-22 05:00N 42°07' W 014°26'0 0.1 16.9
2014-Nov-22 02:00N 42°07' W 014°26'0 0.1 16.9
2014-Nov-21 23:00N 42°07' W 014°26'0 0.4 16.9
2014-Nov-21 22:00N 42°07' W 014°25'0 0.2 16.9
2014-Nov-21 21:00N 42°07' W 014°25'0 0.0 16.9
2014-Nov-21 20:00N 42°07' W 014°25'0 0.0 17.0
2014-Nov-21 19:00N 42°07' W 014°25'0 0.0 17.0
2014-Nov-21 18:00N 42°07' W 014°25'1 0.7 17.0
2014-Nov-21 17:00N 42°07' W 014°26'1 0.7 17.0
2014-Nov-21 16:00N 42°08' W 014°25'1 0.4 17.0
2014-Nov-21 14:00N 42°07' W 014°26'1 0.7 17.1
2014-Nov-21 12:00N 42°07' W 014°28'0 0.0 17.0
2014-Nov-21 11:00N 42°07' W 014°28'1 0.6 17.0
2014-Nov-21 10:00N 42°06' W 014°28'1 0.3 16.9
2014-Nov-21 06:00N 42°05' W 014°27'0 0.0 16.9
2014-Nov-21 05:00N 42°05' W 014°27'0 0.0 16.9
2014-Nov-21 04:00N 42°05' W 014°27'0 0.0 16.9
2014-Nov-21 03:00N 42°05' W 014°27'0 0.0 16.9
2014-Nov-21 02:00N 42°05' W 014°27'1 0.1 17.0
2014-Nov-20 22:00N 42°04' W 014°27'1 0.7 17.0
2014-Nov-20 21:00N 42°04' W 014°28'0 0.4 17.0
2014-Nov-20 20:00N 42°04' W 014°28'0 0.2 17.0
2014-Nov-20 18:00N 42°04' W 014°29'1 0.4 17.0
2014-Nov-20 16:00N 42°03' W 014°29'0 0.0 17.0
2014-Nov-20 14:00N 42°03' W 014°29'1 0.6 17.0
2014-Nov-20 12:00N 42°02' W 014°29'1 0.7 17.0
2014-Nov-20 11:00N 42°01' W 014°29'0 0.0 17.0
2014-Nov-20 09:00N 42°01' W 014°29'1 0.6 16.9
2014-Nov-20 08:00N 42°01' W 014°29'0 0.0 16.9
2014-Nov-20 07:00N 42°01' W 014°29'0 0.0 16.9
2014-Nov-20 06:00N 42°01' W 014°29'1 0.6 16.9
2014-Nov-20 05:00N 42°00' W 014°29'1 1.2 16.9
2014-Nov-20 04:00N 41°59' W 014°29'0 0.0 16.9
2014-Nov-20 02:00N 41°59' W 014°29'1 0.2 16.9
2014-Nov-19 23:00N 41°58' W 014°29'1 0.7 16.9
2014-Nov-19 22:00N 41°57' W 014°29'1 1.2 16.9
2014-Nov-19 21:00N 41°56' W 014°28'0 0.0 16.9
2014-Nov-19 20:00N 41°56' W 014°28'0 0.0 16.9
2014-Nov-19 19:00N 41°56' W 014°28'0 0.0 16.9
2014-Nov-19 18:00N 41°56' W 014°28'0 0.0 17.0
2014-Nov-19 16:00N 41°56' W 014°28'0 0.0 17.0
2014-Nov-19 15:00N 41°56' W 014°28'1 1.5 17.0
2014-Nov-19 14:00N 41°56' W 014°30'1 1.3 17.0
2014-Nov-19 13:00N 41°55' W 014°31'3 1.0 17.0
2014-Nov-19 10:00N 41°52' W 014°29'1 0.5 16.9
2014-Nov-19 07:00N 41°51' W 014°28'0 0.1 16.9
2014-Nov-19 06:00N 41°51' W 014°28'1 0.6 16.9
2014-Nov-19 05:00N 41°50' W 014°28'0 0.0 16.9
2014-Nov-19 04:00N 41°50' W 014°28'0 0.1 16.9
2014-Nov-19 00:00N 41°50' W 014°28'0 0.2 16.9
2014-Nov-18 23:00N 41°50' W 014°28'0 0.0 16.9
2014-Nov-18 19:00N 41°50' W 014°28'0 0.2 17.0
2014-Nov-18 18:00N 41°50' W 014°28'1 1.0 17.0
2014-Nov-18 17:00N 41°50' W 014°29'0 0.3 17.0
2014-Nov-18 16:00N 41°49' W 014°29'0 0.0 17.0
2014-Nov-18 15:00N 41°49' W 014°29'1 0.7 17.0
2014-Nov-18 14:00N 41°50' W 014°29'1 0.6 17.0
2014-Nov-18 13:00N 41°49' W 014°29'1 0.7 17.0
2014-Nov-18 12:00N 41°49' W 014°29'0 0.0 17.0
2014-Nov-18 11:00N 41°49' W 014°29'0 0.4 17.0
2014-Nov-18 10:00N 41°49' W 014°28'1 0.4 17.0
2014-Nov-18 08:00N 41°49' W 014°28'0 0.0 17.0
2014-Nov-18 07:00N 41°49' W 014°28'0 0.0 17.0
2014-Nov-18 06:00N 41°49' W 014°28'2 2.3 17.0
2014-Nov-18 05:00N 41°50' W 014°31'0 0.0 17.0
2014-Nov-18 04:00N 41°50' W 014°31'0 0.0 17.0
2014-Nov-18 03:00N 41°50' W 014°31'0 0.0 17.0
2014-Nov-18 01:00N 41°50' W 014°31'3 1.5 17.0
2014-Nov-17 23:00N 41°47' W 014°33'0 0.0 17.0
2014-Nov-17 22:00N 41°47' W 014°33'0 0.0 17.0
2014-Nov-17 21:00N 41°47' W 014°33'1 1.2 17.0
2014-Nov-17 20:00N 41°46' W 014°33'0 0.0 17.0
2014-Nov-17 18:00N 41°46' W 014°33'1 0.7 17.0
2014-Nov-17 17:00N 41°46' W 014°34'0 0.0 17.0
2014-Nov-17 16:00N 41°46' W 014°34'0 0.0 17.0
2014-Nov-17 15:00N 41°46' W 014°34'1 0.6 17.0
2014-Nov-17 14:00N 41°45' W 014°34'1 0.9 17.0
2014-Nov-17 13:00N 41°44' W 014°35'0 0.4 17.0
2014-Nov-17 12:00N 41°44' W 014°34'0 0.1 17.0
2014-Nov-17 09:00N 41°44' W 014°35'1 0.6 17.0
2014-Nov-17 08:00N 41°44' W 014°35'0 0.0 17.0
2014-Nov-17 07:00N 41°44' W 014°35'1 0.6 17.0
2014-Nov-17 06:00N 41°44' W 014°35'0 0.1 17.0
2014-Nov-17 03:00N 41°44' W 014°35'3 1.3 17.0
2014-Nov-17 01:00N 41°43' W 014°38'0 0.2 17.0
2014-Nov-16 23:00N 41°42' W 014°38'1 0.9 17.0
2014-Nov-16 22:00N 41°41' W 014°38'0 0.3 17.0
2014-Nov-16 21:00N 41°42' W 014°38'1 0.4 17.0
2014-Nov-16 19:00N 41°41' W 014°37'0 0.0 17.0
2014-Nov-16 18:00N 41°41' W 014°37'1 0.6 17.0
2014-Nov-16 16:00N 41°43' W 014°37'0 0.0 17.0
2014-Nov-16 15:00N 41°43' W 014°37'1 0.7 17.0
2014-Nov-16 13:00N 41°43' W 014°38'2 0.9 17.1
2014-Nov-16 11:00N 41°41' W 014°40'1 0.6 17.1
2014-Nov-16 09:00N 41°40' W 014°41'0 0.2 17.1
2014-Nov-16 07:00N 41°40' W 014°40'1 0.6 17.1
2014-Nov-16 05:00N 41°39' W 014°41'0 0.0 17.1
2014-Nov-16 04:00N 41°39' W 014°41'0 0.0 17.1
2014-Nov-16 01:00N 41°39' W 014°41'1 0.2 17.1
2014-Nov-15 22:00N 41°40' W 014°40'1 1.1 17.1
2014-Nov-15 21:00N 41°40' W 014°41'0 0.0 17.1
2014-Nov-15 18:00N 41°40' W 014°41'1 1.1 17.1
2014-Nov-15 17:00N 41°41' W 014°43'0 0.0 17.1
2014-Nov-15 15:00N 41°41' W 014°43'3 0.7 17.2
2014-Nov-15 11:00N 41°38' W 014°44'1 0.6 17.2
2014-Nov-15 10:00N 41°38' W 014°44'3 2.7 17.2
2014-Nov-15 09:00N 41°38' W 014°41'0 0.0 17.2
2014-Nov-15 07:00N 41°38' W 014°41'5 2.7 17.2
2014-Nov-15 05:00N 41°41' W 014°46'0 0.0 17.2
2014-Nov-15 04:00N 41°41' W 014°46'0 0.0 17.2
2014-Nov-15 03:00N 41°41' W 014°46'0 0.0 17.2
2014-Nov-14 23:00N 41°41' W 014°46'1 1.5 17.3
2014-Nov-14 22:00N 41°41' W 014°48'1 1.5 17.3
2014-Nov-14 21:00N 41°40' W 014°47'0 0.0 17.3
2014-Nov-14 20:00N 41°40' W 014°47'1 0.6 17.3
2014-Nov-14 18:00N 41°38' W 014°47'0 0.0 17.3
2014-Nov-14 17:00N 41°38' W 014°47'0 0.1 17.3
2014-Nov-14 15:00N 41°38' W 014°47'2 0.5 17.3
2014-Nov-14 11:00N 41°40' W 014°47'2 1.8 17.3
2014-Nov-14 10:00N 41°41' W 014°49'0 0.0 17.3
2014-Nov-14 09:00N 41°41' W 014°49'0 0.0 17.3
2014-Nov-14 08:00N 41°41' W 014°49'0 0.0 17.4
2014-Nov-14 07:00N 41°41' W 014°49'4 3.8 17.4
2014-Nov-14 06:00N 41°40' W 014°53'0 0.0 17.4
2014-Nov-14 04:00N 41°40' W 014°53'1 0.3 17.4
2014-Nov-13 23:00N 41°39' W 014°53'2 0.9 17.4
2014-Nov-13 21:00N 41°40' W 014°50'0 0.0 17.5
2014-Nov-13 20:00N 41°40' W 014°50'0 0.0 17.5
2014-Nov-13 19:00N 41°40' W 014°50'1 0.6 17.5
2014-Nov-13 18:00N 41°40' W 014°50'6 5.5 17.5
2014-Nov-13 17:00N 41°44' W 014°55'0 0.0 17.5
2014-Nov-13 16:00N 41°44' W 014°55'0 0.0 17.5
2014-Nov-13 15:00N 41°44' W 014°55'0 0.0 17.5
2014-Nov-13 14:00N 41°44' W 014°55'3 1.6 17.5
2014-Nov-13 12:00N 41°42' W 014°58'1 0.2 17.6
2014-Nov-13 08:00N 41°41' W 014°58'0 0.0 17.6
2014-Nov-13 07:00N 41°41' W 014°58'1 0.7 17.6
2014-Nov-13 06:00N 41°42' W 014°57'0 0.0 17.6
2014-Nov-13 05:00N 41°42' W 014°57'0 0.0 17.6
2014-Nov-13 04:00N 41°42' W 014°57'0 0.0 17.6
2014-Nov-12 23:00N 41°42' W 014°57'   17.6
Track history (hours):
 
Tides and Currents Weather Stations Pressure Air Temp Water Temp Dewpoint Dewpoint Depression Visibility Wind Speed Wind Dir Waves Ship Positions

Drifting buoy 62726

Last reported at 2014-Nov-22 23:00 UTC. Time now 2014-Nov-23 03:44 UTC.
Position N 42°09' W 014°29'.

Water temperature 16.8 ° C

Date/timePositionNaut miles runAvg speedWind from/ knotsBaromVisibWave heightAir tempDewpointWater temp
2014-Nov-22 23:00N 42°09' W 014°29'0 0.3 16.8
2014-Nov-22 22:00N 42°09' W 014°29'0 0.0 16.8
2014-Nov-22 21:00N 42°09' W 014°29'0 0.0 16.8
2014-Nov-22 20:00N 42°09' W 014°29'0 0.0 16.8
2014-Nov-22 17:00N 42°09' W 014°29'2 1.9 16.8
2014-Nov-22 16:00N 42°07' W 014°29'0 0.0 16.8
2014-Nov-22 14:00N 42°07' W 014°29'2 0.6 16.9
2014-Nov-22 11:00N 42°07' W 014°26'0 0.0 16.9
2014-Nov-22 10:00N 42°07' W 014°26'1 0.7 16.9
2014-Nov-22 09:00N 42°08' W 014°26'0 0.0 16.9
2014-Nov-22 07:00N 42°08' W 014°26'1 1.2 16.9
2014-Nov-22 06:00N 42°07' W 014°26'0 0.0 16.9
2014-Nov-22 05:00N 42°07' W 014°26'0 0.1 16.9
2014-Nov-22 02:00N 42°07' W 014°26'0 0.1 16.9
2014-Nov-21 23:00N 42°07' W 014°26'0 0.4 16.9
2014-Nov-21 22:00N 42°07' W 014°25'0 0.2 16.9
2014-Nov-21 21:00N 42°07' W 014°25'0 0.0 16.9
2014-Nov-21 20:00N 42°07' W 014°25'0 0.0 17.0
2014-Nov-21 19:00N 42°07' W 014°25'0 0.0 17.0
2014-Nov-21 18:00N 42°07' W 014°25'1 0.7 17.0
2014-Nov-21 17:00N 42°07' W 014°26'1 0.7 17.0
2014-Nov-21 16:00N 42°08' W 014°25'1 0.4 17.0
2014-Nov-21 14:00N 42°07' W 014°26'1 0.7 17.1
2014-Nov-21 12:00N 42°07' W 014°28'0 0.0 17.0
2014-Nov-21 11:00N 42°07' W 014°28'1 0.6 17.0
2014-Nov-21 10:00N 42°06' W 014°28'1 0.3 16.9
2014-Nov-21 06:00N 42°05' W 014°27'0 0.0 16.9
2014-Nov-21 05:00N 42°05' W 014°27'0 0.0 16.9
2014-Nov-21 04:00N 42°05' W 014°27'0 0.0 16.9
2014-Nov-21 03:00N 42°05' W 014°27'0 0.0 16.9
2014-Nov-21 02:00N 42°05' W 014°27'1 0.1 17.0
2014-Nov-20 22:00N 42°04' W 014°27'1 0.7 17.0
2014-Nov-20 21:00N 42°04' W 014°28'0 0.4 17.0
2014-Nov-20 20:00N 42°04' W 014°28'0 0.2 17.0
2014-Nov-20 18:00N 42°04' W 014°29'1 0.4 17.0
2014-Nov-20 16:00N 42°03' W 014°29'0 0.0 17.0
2014-Nov-20 14:00N 42°03' W 014°29'1 0.6 17.0
2014-Nov-20 12:00N 42°02' W 014°29'1 0.7 17.0
2014-Nov-20 11:00N 42°01' W 014°29'0 0.0 17.0
2014-Nov-20 09:00N 42°01' W 014°29'1 0.6 16.9
2014-Nov-20 08:00N 42°01' W 014°29'0 0.0 16.9
2014-Nov-20 07:00N 42°01' W 014°29'0 0.0 16.9
2014-Nov-20 06:00N 42°01' W 014°29'1 0.6 16.9
2014-Nov-20 05:00N 42°00' W 014°29'1 1.2 16.9
2014-Nov-20 04:00N 41°59' W 014°29'0 0.0 16.9
2014-Nov-20 02:00N 41°59' W 014°29'1 0.2 16.9
2014-Nov-19 23:00N 41°58' W 014°29'1 0.7 16.9
2014-Nov-19 22:00N 41°57' W 014°29'1 1.2 16.9
2014-Nov-19 21:00N 41°56' W 014°28'0 0.0 16.9
2014-Nov-19 20:00N 41°56' W 014°28'0 0.0 16.9
2014-Nov-19 19:00N 41°56' W 014°28'0 0.0 16.9
2014-Nov-19 18:00N 41°56' W 014°28'0 0.0 17.0
2014-Nov-19 16:00N 41°56' W 014°28'0 0.0 17.0
2014-Nov-19 15:00N 41°56' W 014°28'1 1.5 17.0
2014-Nov-19 14:00N 41°56' W 014°30'1 1.3 17.0
2014-Nov-19 13:00N 41°55' W 014°31'3 1.0 17.0
2014-Nov-19 10:00N 41°52' W 014°29'1 0.5 16.9
2014-Nov-19 07:00N 41°51' W 014°28'0 0.1 16.9
2014-Nov-19 06:00N 41°51' W 014°28'1 0.6 16.9
2014-Nov-19 05:00N 41°50' W 014°28'0 0.0 16.9
2014-Nov-19 04:00N 41°50' W 014°28'0 0.1 16.9
2014-Nov-19 00:00N 41°50' W 014°28'0 0.2 16.9
2014-Nov-18 23:00N 41°50' W 014°28'0 0.0 16.9
2014-Nov-18 19:00N 41°50' W 014°28'0 0.2 17.0
2014-Nov-18 18:00N 41°50' W 014°28'1 1.0 17.0
2014-Nov-18 17:00N 41°50' W 014°29'0 0.3 17.0
2014-Nov-18 16:00N 41°49' W 014°29'0 0.0 17.0
2014-Nov-18 15:00N 41°49' W 014°29'1 0.7 17.0
2014-Nov-18 14:00N 41°50' W 014°29'1 0.6 17.0
2014-Nov-18 13:00N 41°49' W 014°29'1 0.7 17.0
2014-Nov-18 12:00N 41°49' W 014°29'0 0.0 17.0
2014-Nov-18 11:00N 41°49' W 014°29'0 0.4 17.0
2014-Nov-18 10:00N 41°49' W 014°28'1 0.4 17.0
2014-Nov-18 08:00N 41°49' W 014°28'0 0.0 17.0
2014-Nov-18 07:00N 41°49' W 014°28'0 0.0 17.0
2014-Nov-18 06:00N 41°49' W 014°28'2 2.3 17.0
2014-Nov-18 05:00N 41°50' W 014°31'0 0.0 17.0
2014-Nov-18 04:00N 41°50' W 014°31'0 0.0 17.0
2014-Nov-18 03:00N 41°50' W 014°31'0 0.0 17.0
2014-Nov-18 01:00N 41°50' W 014°31'3 1.5 17.0
2014-Nov-17 23:00N 41°47' W 014°33'0 0.0 17.0
2014-Nov-17 22:00N 41°47' W 014°33'0 0.0 17.0
2014-Nov-17 21:00N 41°47' W 014°33'1 1.2 17.0
2014-Nov-17 20:00N 41°46' W 014°33'0 0.0 17.0
2014-Nov-17 18:00N 41°46' W 014°33'1 0.7 17.0
2014-Nov-17 17:00N 41°46' W 014°34'0 0.0 17.0
2014-Nov-17 16:00N 41°46' W 014°34'0 0.0 17.0
2014-Nov-17 15:00N 41°46' W 014°34'1 0.6 17.0
2014-Nov-17 14:00N 41°45' W 014°34'1 0.9 17.0
2014-Nov-17 13:00N 41°44' W 014°35'0 0.4 17.0
2014-Nov-17 12:00N 41°44' W 014°34'0 0.1 17.0
2014-Nov-17 09:00N 41°44' W 014°35'1 0.6 17.0
2014-Nov-17 08:00N 41°44' W 014°35'0 0.0 17.0
2014-Nov-17 07:00N 41°44' W 014°35'1 0.6 17.0
2014-Nov-17 06:00N 41°44' W 014°35'0 0.1 17.0
2014-Nov-17 03:00N 41°44' W 014°35'3 1.3 17.0
2014-Nov-17 01:00N 41°43' W 014°38'0 0.2 17.0
2014-Nov-16 23:00N 41°42' W 014°38'1 0.9 17.0
2014-Nov-16 22:00N 41°41' W 014°38'0 0.3 17.0
2014-Nov-16 21:00N 41°42' W 014°38'1 0.4 17.0
2014-Nov-16 19:00N 41°41' W 014°37'0 0.0 17.0
2014-Nov-16 18:00N 41°41' W 014°37'1 0.6 17.0
2014-Nov-16 16:00N 41°43' W 014°37'0 0.0 17.0
2014-Nov-16 15:00N 41°43' W 014°37'1 0.7 17.0
2014-Nov-16 13:00N 41°43' W 014°38'2 0.9 17.1
2014-Nov-16 11:00N 41°41' W 014°40'1 0.6 17.1
2014-Nov-16 09:00N 41°40' W 014°41'0 0.2 17.1
2014-Nov-16 07:00N 41°40' W 014°40'1 0.6 17.1
2014-Nov-16 05:00N 41°39' W 014°41'0 0.0 17.1
2014-Nov-16 04:00N 41°39' W 014°41'0 0.0 17.1
2014-Nov-16 01:00N 41°39' W 014°41'1 0.2 17.1
2014-Nov-15 22:00N 41°40' W 014°40'1 1.1 17.1
2014-Nov-15 21:00N 41°40' W 014°41'0 0.0 17.1
2014-Nov-15 18:00N 41°40' W 014°41'1 1.1 17.1
2014-Nov-15 17:00N 41°41' W 014°43'0 0.0 17.1
2014-Nov-15 15:00N 41°41' W 014°43'3 0.7 17.2
2014-Nov-15 11:00N 41°38' W 014°44'1 0.6 17.2
2014-Nov-15 10:00N 41°38' W 014°44'3 2.7 17.2
2014-Nov-15 09:00N 41°38' W 014°41'0 0.0 17.2
2014-Nov-15 07:00N 41°38' W 014°41'5 2.7 17.2
2014-Nov-15 05:00N 41°41' W 014°46'0 0.0 17.2
2014-Nov-15 04:00N 41°41' W 014°46'0 0.0 17.2
2014-Nov-15 03:00N 41°41' W 014°46'0 0.0 17.2
2014-Nov-14 23:00N 41°41' W 014°46'1 1.5 17.3
2014-Nov-14 22:00N 41°41' W 014°48'1 1.5 17.3
2014-Nov-14 21:00N 41°40' W 014°47'0 0.0 17.3
2014-Nov-14 20:00N 41°40' W 014°47'1 0.6 17.3
2014-Nov-14 18:00N 41°38' W 014°47'0 0.0 17.3
2014-Nov-14 17:00N 41°38' W 014°47'0 0.1 17.3
2014-Nov-14 15:00N 41°38' W 014°47'2 0.5 17.3
2014-Nov-14 11:00N 41°40' W 014°47'2 1.8 17.3
2014-Nov-14 10:00N 41°41' W 014°49'0 0.0 17.3
2014-Nov-14 09:00N 41°41' W 014°49'0 0.0 17.3
2014-Nov-14 08:00N 41°41' W 014°49'0 0.0 17.4
2014-Nov-14 07:00N 41°41' W 014°49'4 3.8 17.4
2014-Nov-14 06:00N 41°40' W 014°53'0 0.0 17.4
2014-Nov-14 04:00N 41°40' W 014°53'1 0.3 17.4
2014-Nov-13 23:00N 41°39' W 014°53'2 0.9 17.4
2014-Nov-13 21:00N 41°40' W 014°50'0 0.0 17.5
2014-Nov-13 20:00N 41°40' W 014°50'0 0.0 17.5
2014-Nov-13 19:00N 41°40' W 014°50'1 0.6 17.5
2014-Nov-13 18:00N 41°40' W 014°50'6 5.5 17.5
2014-Nov-13 17:00N 41°44' W 014°55'0 0.0 17.5
2014-Nov-13 16:00N 41°44' W 014°55'0 0.0 17.5
2014-Nov-13 15:00N 41°44' W 014°55'0 0.0 17.5
2014-Nov-13 14:00N 41°44' W 014°55'3 1.6 17.5
2014-Nov-13 12:00N 41°42' W 014°58'1 0.2 17.6
2014-Nov-13 08:00N 41°41' W 014°58'0 0.0 17.6
2014-Nov-13 07:00N 41°41' W 014°58'1 0.7 17.6
2014-Nov-13 06:00N 41°42' W 014°57'0 0.0 17.6
2014-Nov-13 05:00N 41°42' W 014°57'0 0.0 17.6
2014-Nov-13 04:00N 41°42' W 014°57'0 0.0 17.6
2014-Nov-12 23:00N 41°42' W 014°57'   17.6

Dump ship's entire track history